Casnovia, Michigan
Current Conditions -  °F | °C
As of 4:31 AM on Friday 28 Nov 2014 (Local Time) from KFFX Reporting Station
Overcast Overcast  
Wind Chill: 19°   Ceiling: 3400
Heat Index: 19°   Visibility: 10mi
Dew Point: 15°   Wind: 3mph
Humidity: 87%   Direction: 200°SSW
Pressure: 30.32"   Gusts: NA
Location:  43.23°N, 85.79°W
Report Text: KFFX 280931Z AUTO 20003KT 10SM OVC034 M07/M09 A3032 RMK AO2 T10741092
Loading
Personal Weather Stations






























Interactive Weather Map New forecast layout! Learn more

10-Day Weather Forecast

Advertisements
Track Severe Weather on mobile